Time;durP1;ratioP1;P1;durP2;ratioP2;P2;SDS_P1;SDS_P2;PMS_P1;PMS_P2;Temp;Humidity;BMP_temperature;BMP_pressure;BME280_temperature;BME280_humidity;BME280_pressure;Samples;Min_cycle;Max_cycle;Signal;HPM_P1;HPM_P2
2021/03/19 00:00:50;;;;;;;14.55;9.98;;;0.40;99.90;;;;;;4953321;28;20039;-78
2021/03/19 00:03:16;;;;;;;19.23;10.15;;;0.40;99.90;;;;;;4950885;29;20043;-78
2021/03/19 00:05:48;;;;;;;19.45;9.65;;;0.50;99.90;;;;;;4961610;28;20043;-79
2021/03/19 00:08:14;;;;;;;17.85;10.88;;;0.40;99.90;;;;;;4956525;28;20083;-78
2021/03/19 00:10:45;;;;;;;19.23;10.73;;;0.40;99.90;;;;;;4953046;28;20051;-78
2021/03/19 00:13:17;;;;;;;18.00;10.73;;;0.40;99.90;;;;;;4950484;28;20265;-77
2021/03/19 00:15:48;;;;;;;21.50;11.55;;;0.40;99.90;;;;;;4951324;28;20098;-77
2021/03/19 00:18:15;;;;;;;16.85;10.68;;;0.40;99.90;;;;;;4952159;28;20039;-78
2021/03/19 00:20:48;;;;;;;19.17;12.20;;;0.30;99.90;;;;;;4951966;29;20047;-78
2021/03/19 00:23:19;;;;;;;19.70;11.73;;;0.40;99.90;;;;;;4952887;28;20051;-77
2021/03/19 00:25:50;;;;;;;19.65;12.65;;;0.40;99.90;;;;;;4956557;28;20043;-78
2021/03/19 00:28:16;;;;;;;19.77;11.95;;;0.40;99.90;;;;;;4956706;28;20047;-77
2021/03/19 00:30:48;;;;;;;21.17;12.48;;;0.40;99.90;;;;;;4956917;28;20098;-78
2021/03/19 00:33:15;;;;;;;20.40;11.65;;;0.40;99.90;;;;;;4956606;29;20090;-78
2021/03/19 00:35:42;;;;;;;22.67;12.32;;;0.40;99.90;;;;;;4957243;28;20458;-77
2021/03/19 00:38:14;;;;;;;20.85;12.05;;;0.30;99.90;;;;;;4956960;28;20419;-77
2021/03/19 00:40:42;;;;;;;24.17;13.27;;;0.30;99.90;;;;;;4956374;28;20230;-78
2021/03/19 00:43:10;;;;;;;22.15;12.25;;;0.30;99.90;;;;;;4956399;28;20066;-77
2021/03/19 00:45:42;;;;;;;20.20;12.90;;;0.30;99.90;;;;;;4956497;28;20172;-77
2021/03/19 00:48:09;;;;;;;24.30;14.23;;;0.20;99.90;;;;;;4956351;29;20047;-77
2021/03/19 00:50:42;;;;;;;25.95;13.93;;;0.20;99.90;;;;;;4956678;28;20106;-77
2021/03/19 00:53:13;;;;;;;26.05;13.82;;;0.10;99.90;;;;;;4956510;29;20046;-78
2021/03/19 00:55:44;;;;;;;23.35;13.35;;;0.10;99.90;;;;;;4956411;28;20626;-77
2021/03/19 00:58:16;;;;;;;24.70;13.00;;;0.10;99.90;;;;;;4956320;28;20093;-77
2021/03/19 01:00:47;;;;;;;24.95;13.07;;;0.10;99.90;;;;;;4955834;28;20094;-78
2021/03/19 01:03:13;;;;;;;23.20;13.05;;;0.10;99.90;;;;;;4957375;28;20114;-77
2021/03/19 01:05:46;;;;;;;23.77;13.38;;;0.10;99.90;;;;;;4956146;28;20466;-77
2021/03/19 01:08:14;;;;;;;25.13;14.20;;;0.00;99.90;;;;;;4955651;28;20100;-78
2021/03/19 01:10:50;;;;;;;31.03;14.37;;;0.00;99.90;;;;;;4956712;28;20051;-78
2021/03/19 01:13:23;;;;;;;23.08;12.50;;;-0.10;99.90;;;;;;4956904;28;20287;-77
2021/03/19 01:15:51;;;;;;;26.00;13.27;;;-0.10;99.90;;;;;;4955922;28;20047;-77
2021/03/19 01:18:24;;;;;;;19.83;10.63;;;-0.10;99.90;;;;;;4955766;29;20582;-77
2021/03/19 01:20:51;;;;;;;25.23;12.93;;;-0.20;99.90;;;;;;4955482;28;20310;-77
2021/03/19 01:23:22;;;;;;;26.67;13.43;;;-0.20;99.90;;;;;;4955317;29;20043;-79
2021/03/19 01:25:49;;;;;;;23.48;12.90;;;-0.20;99.90;;;;;;4955214;28;20099;-78
2021/03/19 01:28:15;;;;;;;23.88;13.45;;;-0.20;99.90;;;;;;4955061;29;20074;-78
2021/03/19 01:30:47;;;;;;;24.95;13.43;;;-0.30;99.90;;;;;;4955241;29;20271;-78
2021/03/19 01:33:19;;;;;;;25.00;13.90;;;-0.30;99.90;;;;;;4954994;29;20054;-78
2021/03/19 01:35:50;;;;;;;24.70;12.98;;;-0.40;99.90;;;;;;4953739;28;20051;-78
2021/03/19 01:38:17;;;;;;;30.30;15.00;;;-0.40;99.90;;;;;;4954751;29;20158;-78
2021/03/19 01:40:49;;;;;;;25.05;13.38;;;-0.40;99.90;;;;;;4954770;28;20043;-78
2021/03/19 01:43:32;;;;;;;27.52;13.45;;;-0.40;99.90;;;;;;4955205;28;20494;-78
2021/03/19 01:46:22;;;;;;;22.98;13.77;;;-0.50;99.90;;;;;;4938988;29;20044;-78
2021/03/19 01:49:31;;;;;;;27.75;13.93;;;-0.40;99.90;;;;;;4954313;28;20053;-78
2021/03/19 01:52:40;;;;;;;27.80;13.25;;;-0.50;99.90;;;;;;4954527;29;20150;-78
2021/03/19 01:55:44;;;;;;;21.55;13.68;;;-0.50;99.90;;;;;;4938591;29;20499;-78
2021/03/19 01:58:48;;;;;;;23.10;13.35;;;-0.50;99.90;;;;;;4954480;28;20066;-78
2021/03/19 02:01:57;;;;;;;23.15;13.00;;;-0.50;99.90;;;;;;4953992;28;20145;-79
2021/03/19 02:05:06;;;;;;;23.02;12.95;;;-0.50;99.90;;;;;;4954460;29;20047;-79
2021/03/19 02:08:16;;;;;;;25.33;12.55;;;-0.60;99.90;;;;;;4954289;29;20119;-78
2021/03/19 02:11:24;;;;;;;22.02;12.40;;;-0.60;99.90;;;;;;4954261;29;20495;-79
2021/03/19 02:14:28;;;;;;;23.33;11.93;;;-0.60;99.90;;;;;;4938348;29;20482;-78
2021/03/19 02:17:37;;;;;;;20.48;11.55;;;-0.60;99.90;;;;;;4954006;29;20063;-78
2021/03/19 02:20:46;;;;;;;21.50;11.95;;;-0.60;99.90;;;;;;4953391;28;20106;-78
2021/03/19 02:23:55;;;;;;;27.63;13.20;;;-0.60;99.90;;;;;;4954041;28;20585;-78
2021/03/19 02:27:04;;;;;;;24.40;11.50;;;-0.60;99.90;;;;;;4953727;28;20094;-78
2021/03/19 02:30:09;;;;;;;24.77;12.88;;;-0.70;99.90;;;;;;4937691;29;20149;-78
2021/03/19 02:32:35;;;;;;;24.63;11.75;;;-0.70;99.90;;;;;;4953725;28;20221;-78
2021/03/19 02:35:06;;;;;;;23.40;12.02;;;-0.70;99.90;;;;;;4953793;28;20122;-78
2021/03/19 02:37:38;;;;;;;21.63;12.23;;;-0.80;99.90;;;;;;4953933;29;20043;-78
2021/03/19 02:40:13;;;;;;;26.35;13.70;;;-0.80;99.90;;;;;;4953823;29;20507;-78
2021/03/19 02:42:39;;;;;;;25.63;12.00;;;-0.80;99.90;;;;;;4953860;28;20129;-78
2021/03/19 02:45:14;;;;;;;26.80;12.30;;;-0.80;99.90;;;;;;4953880;29;20043;-78
2021/03/19 02:47:40;;;;;;;27.17;12.57;;;-0.80;99.90;;;;;;4953600;28;20078;-79
2021/03/19 02:50:08;;;;;;;23.25;11.75;;;-0.80;99.90;;;;;;4953654;29;20132;-78
2021/03/19 02:52:42;;;;;;;22.73;12.43;;;-0.80;99.90;;;;;;4953942;28;20043;-78
2021/03/19 02:55:17;;;;;;;22.92;12.07;;;-0.80;99.90;;;;;;4954597;28;20051;-78
2021/03/19 02:57:44;;;;;;;21.65;11.18;;;-0.80;99.90;;;;;;4953457;28;20089;-78
2021/03/19 03:00:18;;;;;;;20.67;11.30;;;-0.80;99.90;;;;;;4953362;28;20102;-78
2021/03/19 03:02:50;;;;;;;21.60;11.30;;;-0.70;99.90;;;;;;4953289;28;20058;-78
2021/03/19 03:05:22;;;;;;;21.27;11.18;;;-0.70;99.90;;;;;;4954526;28;20163;-78
2021/03/19 03:07:48;;;;;;;21.55;11.90;;;-0.70;99.90;;;;;;4969419;28;20113;-78
2021/03/19 03:10:22;;;;;;;20.08;10.70;;;-0.70;99.90;;;;;;4953374;29;20098;-78
2021/03/19 03:12:54;;;;;;;22.70;12.77;;;-0.70;99.90;;;;;;4953584;29;20122;-78
2021/03/19 03:15:26;;;;;;;21.17;11.57;;;-0.70;99.90;;;;;;4953532;29;20046;-78
2021/03/19 03:17:57;;;;;;;19.27;10.95;;;-0.70;99.90;;;;;;4969096;28;20045;-79
2021/03/19 03:20:35;;;;;;;30.08;14.52;;;-0.60;99.90;;;;;;4954033;28;20115;-78
2021/03/19 03:23:07;;;;;;;23.52;12.88;;;-0.60;99.90;;;;;;4953329;29;20127;-78
2021/03/19 03:25:38;;;;;;;21.75;11.73;;;-0.60;99.90;;;;;;4953363;28;20047;-78
2021/03/19 03:28:11;;;;;;;21.88;12.07;;;-0.60;99.90;;;;;;4952901;29;20047;-78
2021/03/19 03:30:47;;;;;;;20.63;11.02;;;-0.60;99.90;;;;;;4953160;29;20055;-78
2021/03/19 03:33:19;;;;;;;22.05;11.13;;;-0.60;99.90;;;;;;4953451;28;20051;-78
2021/03/19 03:35:45;;;;;;;21.48;11.57;;;-0.50;99.90;;;;;;4937399;29;20415;-78
2021/03/19 03:38:20;;;;;;;22.15;11.90;;;-0.50;99.90;;;;;;4952879;29;20551;-78
2021/03/19 03:40:59;;;;;;;17.95;10.07;;;-0.50;99.90;;;;;;4952933;28;20471;-78
2021/03/19 03:43:31;;;;;;;22.70;11.52;;;-0.50;99.90;;;;;;4953280;29;20099;-78
2021/03/19 03:46:05;;;;;;;23.00;11.50;;;-0.50;99.90;;;;;;4953146;28;20063;-78
2021/03/19 03:48:33;;;;;;;24.95;12.82;;;-0.50;99.90;;;;;;4953235;29;20491;-78
2021/03/19 03:51:01;;;;;;;23.67;12.75;;;-0.40;99.90;;;;;;4953098;28;20282;-78
2021/03/19 03:53:34;;;;;;;25.75;13.63;;;-0.40;99.90;;;;;;4953801;28;20043;-78
2021/03/19 03:56:09;;;;;;;21.88;12.20;;;-0.40;99.90;;;;;;4953482;28;20094;-78
2021/03/19 03:58:35;;;;;;;18.83;11.13;;;-0.40;99.90;;;;;;4952155;28;20146;-78
2021/03/19 04:01:07;;;;;;;22.25;12.23;;;-0.40;99.90;;;;;;4952599;28;20047;-78
2021/03/19 04:03:39;;;;;;;24.42;12.52;;;-0.40;99.90;;;;;;4952934;29;20043;-78
2021/03/19 04:06:10;;;;;;;21.23;10.95;;;-0.40;99.90;;;;;;4953155;28;20094;-78
2021/03/19 04:08:42;;;;;;;19.45;10.98;;;-0.40;99.90;;;;;;4952510;28;20050;-78
2021/03/19 04:11:16;;;;;;;20.38;11.68;;;-0.50;99.90;;;;;;4952551;28;20087;-78
2021/03/19 04:13:50;;;;;;;21.70;11.35;;;-0.50;99.90;;;;;;4952863;28;20144;-78
2021/03/19 04:16:17;;;;;;;21.40;11.38;;;-0.50;99.90;;;;;;4952583;29;20150;-78
2021/03/19 04:18:49;;;;;;;18.98;10.85;;;-0.50;99.90;;;;;;4953296;28;20507;-78
2021/03/19 04:21:20;;;;;;;20.15;10.68;;;-0.60;99.90;;;;;;4951989;28;20094;-79
2021/03/19 04:23:52;;;;;;;22.40;10.77;;;-0.60;99.90;;;;;;4952625;28;20150;-78
2021/03/19 04:26:34;;;;;;;18.55;10.82;;;-0.70;99.90;;;;;;4952408;28;20043;-78
2021/03/19 04:29:05;;;;;;;16.65;10.25;;;-0.80;99.90;;;;;;4952726;28;20043;-78
2021/03/19 04:31:32;;;;;;;17.65;10.27;;;-0.80;99.90;;;;;;4952480;29;20043;-78
2021/03/19 04:34:03;;;;;;;17.38;10.00;;;-0.90;99.90;;;;;;4952302;29;20070;-78
2021/03/19 04:36:55;;;;;;;17.98;10.25;;;-0.90;99.90;;;;;;4950981;29;20053;-78
2021/03/19 04:39:30;;;;;;;17.08;10.88;;;-0.90;99.90;;;;;;4951458;29;20043;-78
2021/03/19 04:42:02;;;;;;;19.65;10.68;;;-0.90;99.90;;;;;;4950718;28;20074;-77
2021/03/19 04:44:36;;;;;;;15.88;9.52;;;-0.90;99.90;;;;;;4951447;28;20507;-78
2021/03/19 04:47:08;;;;;;;;;;;-1.00;99.90;;;;;;4951056;28;20137;-78
2021/03/19 04:49:40;;;;;;;16.80;8.80;;;-1.00;99.90;;;;;;4950232;28;19922;-76
2021/03/19 04:52:11;;;;;;;18.38;10.45;;;-0.80;99.90;;;;;;4950681;28;20398;-77
2021/03/19 04:54:43;;;;;;;15.32;8.50;;;-0.60;99.90;;;;;;4950724;29;20086;-78
2021/03/19 04:57:10;;;;;;;18.17;10.27;;;-0.60;99.90;;;;;;4950407;28;20146;-77
2021/03/19 04:59:41;;;;;;;17.85;10.18;;;-0.60;99.90;;;;;;4950999;28;20065;-77
2021/03/19 05:02:08;;;;;;;17.27;9.48;;;-0.80;99.90;;;;;;4950552;28;20466;-77
2021/03/19 05:04:34;;;;;;;15.45;9.55;;;-0.90;99.90;;;;;;4934684;29;20079;-77
2021/03/19 05:07:08;;;;;;;14.93;9.07;;;-0.90;99.90;;;;;;4950158;28;20051;-77
2021/03/19 05:09:36;;;;;;;16.17;9.48;;;-1.00;99.90;;;;;;4934325;28;20137;-78
2021/03/19 05:12:04;;;;;;;16.58;9.35;;;-1.10;99.90;;;;;;4956464;28;20502;-77
2021/03/19 05:14:30;;;;;;;16.42;9.43;;;-1.10;99.90;;;;;;4938147;29;20082;-77
2021/03/19 05:17:02;;;;;;;18.67;9.27;;;-1.10;99.90;;;;;;4954072;29;20096;-77
2021/03/19 05:19:28;;;;;;;16.73;9.65;;;-1.20;99.90;;;;;;4953020;29;20114;-77
2021/03/19 05:22:00;;;;;;;17.17;10.05;;;-1.20;99.90;;;;;;4953489;29;20134;-77
2021/03/19 05:24:26;;;;;;;23.90;12.63;;;-1.20;99.90;;;;;;4937829;29;20533;-77
2021/03/19 05:26:53;;;;;;;19.10;10.68;;;-1.20;99.90;;;;;;4954088;28;20506;-77
2021/03/19 05:29:19;;;;;;;20.73;10.20;;;-1.10;99.90;;;;;;4936910;29;20142;-77
2021/03/19 05:31:50;;;;;;;19.58;10.85;;;-1.10;99.90;;;;;;4953058;28;20466;-77
2021/03/19 05:34:17;;;;;;;22.05;11.38;;;-1.10;99.90;;;;;;4937002;29;20138;-77
2021/03/19 05:36:48;;;;;;;20.20;10.32;;;-1.00;99.90;;;;;;4952875;29;20442;-78
2021/03/19 05:39:15;;;;;;;19.05;10.32;;;-1.00;99.90;;;;;;4936357;29;20082;-77
2021/03/19 05:41:43;;;;;;;21.52;11.75;;;-0.90;99.90;;;;;;4952816;29;20518;-77
2021/03/19 05:44:21;;;;;;;22.45;11.25;;;-0.90;99.90;;;;;;4936948;29;20138;-77
2021/03/19 05:47:02;;;;;;;21.65;11.38;;;-0.80;99.90;;;;;;4936977;29;20098;-76
2021/03/19 05:49:33;;;;;;;23.42;13.55;;;-0.80;99.90;;;;;;4936304;29;20167;-77
2021/03/19 05:52:08;;;;;;;20.90;12.70;;;-0.80;99.90;;;;;;4952877;29;20058;-77
2021/03/19 05:54:35;;;;;;;24.80;11.98;;;-0.70;99.90;;;;;;4936799;28;20132;-77
2021/03/19 05:57:08;;;;;;;20.42;11.35;;;-0.70;99.90;;;;;;4937388;29;20082;-77
2021/03/19 05:59:37;;;;;;;20.55;11.07;;;-0.70;99.90;;;;;;4936005;28;20048;-76
2021/03/19 06:02:27;;;;;;;21.38;11.30;;;-0.70;99.90;;;;;;4967928;28;20039;-76
2021/03/19 06:05:20;;;;;;;21.50;11.75;;;-0.60;99.90;;;;;;4936479;29;20081;-77
2021/03/19 06:07:52;;;;;;;20.60;10.75;;;-0.60;99.90;;;;;;4952561;28;20043;-77
2021/03/19 06:10:24;;;;;;;22.33;11.18;;;-0.70;99.90;;;;;;4962495;28;20043;-77
2021/03/19 06:13:19;;;;;;;23.73;11.68;;;-0.70;99.90;;;;;;4952746;28;20147;-76
2021/03/19 06:15:52;;;;;;;23.10;10.45;;;-0.70;99.90;;;;;;4926476;28;20142;-77
2021/03/19 06:18:41;;;;;;;20.15;11.25;;;-0.70;99.90;;;;;;4952385;28;20066;-77
2021/03/19 06:21:18;;;;;;;22.90;12.52;;;-0.70;99.90;;;;;;4940479;28;20047;-77
2021/03/19 06:24:22;;;;;;;24.33;12.95;;;-0.60;99.90;;;;;;4955813;28;20070;-77
2021/03/19 06:27:23;;;;;;;25.25;13.65;;;-0.60;99.90;;;;;;4955955;28;20038;-77
2021/03/19 06:29:54;;;;;;;22.27;11.90;;;-0.50;99.90;;;;;;4954819;28;20581;-77
2021/03/19 06:32:31;;;;;;;21.63;11.95;;;-0.50;99.90;;;;;;4985790;28;20046;-77
2021/03/19 06:35:08;;;;;;;26.88;12.10;;;-0.40;99.90;;;;;;4974920;28;20096;-77
2021/03/19 06:37:39;;;;;;;21.88;12.38;;;-0.40;99.90;;;;;;4970510;28;20057;-77
2021/03/19 06:40:23;;;;;;;24.50;11.35;;;-0.30;99.90;;;;;;4954421;28;20077;-77
2021/03/19 06:43:11;;;;;;;22.25;11.02;;;-0.30;99.90;;;;;;4955332;28;20138;-77
2021/03/19 06:45:44;;;;;;;21.23;11.38;;;-0.20;99.90;;;;;;4955420;28;20250;-77
2021/03/19 06:48:33;;;;;;;20.08;11.52;;;-0.20;99.90;;;;;;4954097;28;20067;-77
2021/03/19 06:50:59;;;;;;;21.42;11.90;;;-0.10;99.90;;;;;;4954630;28;20074;-77
2021/03/19 06:53:32;;;;;;;24.85;12.25;;;-0.10;99.90;;;;;;4955532;28;20572;-77
2021/03/19 06:56:17;;;;;;;22.40;12.70;;;0.00;99.90;;;;;;4970685;28;20113;-78
2021/03/19 06:58:50;;;;;;;24.23;11.70;;;0.00;99.90;;;;;;4954769;28;20043;-78
2021/03/19 07:01:29;;;;;;;21.85;12.27;;;-0.10;99.90;;;;;;4950008;28;20067;-77
2021/03/19 07:04:02;;;;;;;;;;;0.00;99.90;;;;;;4951711;29;20578;-77
2021/03/19 07:06:57;;;;;;;23.48;11.93;;;-0.10;99.90;;;;;;4951800;28;19922;-77
2021/03/19 07:09:45;;;;;;;18.83;10.18;;;-0.10;99.90;;;;;;4970026;28;20498;-77
2021/03/19 07:12:19;;;;;;;20.13;11.70;;;0.00;99.90;;;;;;4973612;28;20050;-77
2021/03/19 07:14:58;;;;;;;23.10;11.68;;;0.00;99.90;;;;;;4974259;28;20298;-77
2021/03/19 07:17:45;;;;;;;22.83;11.77;;;0.10;99.90;;;;;;4962882;28;20066;-77
2021/03/19 07:20:20;;;;;;;20.48;11.38;;;0.10;99.90;;;;;;4950695;28;20078;-76
2021/03/19 07:23:17;;;;;;;22.58;11.43;;;0.20;99.90;;;;;;4949788;28;20157;-77
2021/03/19 07:26:13;;;;;;;20.13;11.57;;;0.10;99.90;;;;;;4933259;29;20125;-77
2021/03/19 07:29:24;;;;;;;24.38;12.50;;;0.20;99.90;;;;;;4944626;28;20043;-77
2021/03/19 07:32:25;;;;;;;22.08;10.90;;;0.20;99.90;;;;;;4950718;29;20047;-77
2021/03/19 07:35:19;;;;;;;23.85;12.50;;;0.30;99.90;;;;;;4925738;28;20059;-77
2021/03/19 07:38:20;;;;;;;23.50;12.60;;;0.40;99.90;;;;;;4950480;29;20134;-77
2021/03/19 07:41:11;;;;;;;24.35;13.30;;;0.50;99.90;;;;;;4934954;29;20585;-77
2021/03/19 07:43:49;;;;;;;22.70;11.80;;;0.60;99.90;;;;;;4950812;29;20044;-77
2021/03/19 07:46:39;;;;;;;29.83;14.83;;;0.60;99.90;;;;;;4951397;28;20051;-76
2021/03/19 07:49:20;;;;;;;29.05;15.48;;;0.60;99.90;;;;;;4950942;28;20051;-77
2021/03/19 07:52:28;;;;;;;27.15;15.30;;;0.70;99.90;;;;;;4950525;29;20082;-77
2021/03/19 07:55:15;;;;;;;38.35;17.27;;;0.70;99.90;;;;;;4950476;29;20502;-76
2021/03/19 07:58:05;;;;;;;25.40;15.10;;;0.70;99.90;;;;;;4950133;29;20049;-77
2021/03/19 08:00:44;;;;;;;30.80;16.52;;;0.70;99.90;;;;;;4935226;29;20460;-77
2021/03/19 08:03:17;;;;;;;;;;;0.60;99.90;;;;;;4950932;28;20094;-76
2021/03/19 08:05:52;;;;;;;29.63;15.63;;;0.60;99.90;;;;;;4950540;28;19969;-77
2021/03/19 08:08:39;;;;;;;32.72;17.05;;;0.60;99.90;;;;;;4965315;28;20043;-76
2021/03/19 08:11:20;;;;;;;30.05;16.92;;;0.60;99.90;;;;;;4950302;29;20145;-77
2021/03/19 08:14:21;;;;;;;29.17;16.77;;;0.60;99.90;;;;;;4949894;28;20146;-77
2021/03/19 08:17:04;;;;;;;26.77;15.70;;;0.70;99.90;;;;;;4952782;28;20101;-77
2021/03/19 08:20:07;;;;;;;31.38;17.35;;;0.80;99.90;;;;;;4968590;28;20171;-77
2021/03/19 08:22:45;;;;;;;30.48;17.25;;;0.80;99.90;;;;;;4968133;28;20047;-77
2021/03/19 08:25:28;;;;;;;28.17;16.98;;;0.90;99.90;;;;;;4953879;28;20137;-77
2021/03/19 08:28:05;;;;;;;24.92;15.45;;;1.00;99.90;;;;;;4968867;28;20049;-77
2021/03/19 08:31:02;;;;;;;29.92;15.48;;;1.00;99.90;;;;;;4954177;28;20146;-77
2021/03/19 08:34:02;;;;;;;27.70;16.73;;;1.10;99.90;;;;;;4969646;28;20049;-77
2021/03/19 08:36:33;;;;;;;30.50;17.38;;;1.10;99.90;;;;;;4969398;28;20085;-78
2021/03/19 08:39:37;;;;;;;30.58;17.08;;;1.20;99.90;;;;;;4952955;28;20097;-78
2021/03/19 08:42:40;;;;;;;21.42;12.75;;;1.20;99.90;;;;;;4969453;28;20074;-77
2021/03/19 08:45:17;;;;;;;27.75;15.80;;;1.20;99.90;;;;;;4954476;28;20518;-77
2021/03/19 08:47:53;;;;;;;26.63;16.67;;;1.20;99.90;;;;;;4972920;28;20509;-77
2021/03/19 08:50:38;;;;;;;29.77;16.73;;;1.20;99.90;;;;;;4973251;28;20085;-77
2021/03/19 08:53:15;;;;;;;32.65;16.48;;;1.20;99.90;;;;;;4957898;28;20081;-77
2021/03/19 08:55:49;;;;;;;31.65;18.20;;;1.20;99.90;;;;;;4954061;28;20495;-78
2021/03/19 08:58:59;;;;;;;29.58;15.88;;;1.30;99.90;;;;;;4963763;28;20458;-77
2021/03/19 09:01:47;;;;;;;25.25;14.80;;;1.40;99.90;;;;;;4963382;28;20043;-78
2021/03/19 09:04:14;;;;;;;24.33;14.45;;;1.40;99.90;;;;;;4952738;28;20150;-77
2021/03/19 09:07:17;;;;;;;29.10;16.35;;;1.40;99.90;;;;;;4956998;28;20039;-77
2021/03/19 09:09:44;;;;;;;26.33;14.90;;;1.50;99.90;;;;;;4960878;28;20070;-77
2021/03/19 09:12:14;;;;;;;27.88;16.45;;;1.50;99.90;;;;;;4952288;28;20043;-77
2021/03/19 09:14:52;;;;;;;26.88;15.68;;;1.50;99.90;;;;;;4956514;28;20494;-77
2021/03/19 09:17:42;;;;;;;32.10;16.00;;;1.60;99.90;;;;;;4955968;28;20451;-77
2021/03/19 09:20:39;;;;;;;29.58;16.17;;;1.70;99.90;;;;;;4969370;28;20042;-77
2021/03/19 09:23:08;;;;;;;30.58;16.25;;;1.80;99.90;;;;;;4944802;28;20133;-77
2021/03/19 09:25:52;;;;;;;32.38;17.30;;;1.80;99.90;;;;;;4959920;28;20142;-77
2021/03/19 09:28:25;;;;;;;29.65;16.60;;;1.90;99.90;;;;;;4952443;28;20074;-77
2021/03/19 09:30:55;;;;;;;29.23;16.38;;;1.90;99.90;;;;;;4958657;28;20078;-77
2021/03/19 09:33:43;;;;;;;31.95;17.17;;;1.90;99.90;;;;;;4962188;28;20134;-77
2021/03/19 09:36:52;;;;;;;26.48;15.38;;;2.00;99.90;;;;;;4969015;28;20049;-77
2021/03/19 09:39:56;;;;;;;29.88;16.65;;;2.00;99.90;;;;;;4962483;28;20755;-77
2021/03/19 09:42:28;;;;;;;31.38;18.65;;;2.10;99.90;;;;;;4972188;28;20146;-77
2021/03/19 09:44:59;;;;;;;29.45;16.88;;;2.20;99.90;;;;;;4965028;28;20043;-77
2021/03/19 09:47:36;;;;;;;27.67;16.00;;;2.30;99.90;;;;;;4964608;28;20125;-77
2021/03/19 09:50:27;;;;;;;20.42;13.68;;;2.30;99.90;;;;;;4966370;28;20043;-77
2021/03/19 09:53:03;;;;;;;34.75;18.35;;;2.30;99.90;;;;;;4945147;28;20130;-77
2021/03/19 09:55:46;;;;;;;33.20;17.35;;;2.30;99.90;;;;;;4966539;28;20066;-77
2021/03/19 09:58:38;;;;;;;34.97;20.37;;;2.20;99.90;;;;;;4955379;28;20493;-77
2021/03/19 10:01:24;;;;;;;26.27;15.57;;;2.20;99.90;;;;;;4937750;29;20292;-77
2021/03/19 10:03:59;;;;;;;26.42;14.98;;;2.10;99.90;;;;;;4957454;28;20047;-77
2021/03/19 10:06:44;;;;;;;23.08;13.90;;;2.20;99.90;;;;;;4969353;28;20102;-77
2021/03/19 10:09:23;;;;;;;21.10;13.30;;;2.20;99.90;;;;;;4953692;28;20146;-77
2021/03/19 10:11:53;;;;;;;20.30;13.43;;;2.30;99.90;;;;;;4959055;28;20122;-77
2021/03/19 10:14:42;;;;;;;21.73;12.60;;;2.30;99.90;;;;;;4966915;28;20400;-77
2021/03/19 10:17:18;;;;;;;19.65;12.88;;;2.40;99.90;;;;;;4964758;28;20106;-77
2021/03/19 10:20:17;;;;;;;20.23;12.73;;;2.50;99.90;;;;;;4954587;28;20137;-77
2021/03/19 10:22:49;;;;;;;23.90;14.43;;;2.80;99.90;;;;;;4956497;28;20045;-77
2021/03/19 10:25:26;;;;;;;20.55;12.80;;;2.90;99.90;;;;;;4958458;28;20154;-78
2021/03/19 10:27:58;;;;;;;18.95;12.15;;;2.90;99.90;;;;;;4954276;28;20143;-78
2021/03/19 10:30:36;;;;;;;19.55;12.65;;;2.90;99.90;;;;;;4952252;29;20070;-78
2021/03/19 10:33:19;;;;;;;20.73;12.60;;;2.90;99.90;;;;;;4937157;29;20146;-78
2021/03/19 10:36:19;;;;;;;17.88;11.82;;;2.80;99.90;;;;;;4936798;29;20086;-78
2021/03/19 10:38:51;;;;;;;23.92;14.88;;;2.80;99.90;;;;;;4936156;29;20082;-78
2021/03/19 10:41:39;;;;;;;20.35;13.02;;;2.90;99.90;;;;;;4936970;29;20043;-78
2021/03/19 10:44:21;;;;;;;20.77;12.40;;;3.20;99.90;;;;;;4937041;29;20138;-78
2021/03/19 10:47:08;;;;;;;20.17;12.18;;;3.50;99.90;;;;;;4953110;29;20036;-78
2021/03/19 10:49:55;;;;;;;23.52;13.30;;;3.70;99.90;;;;;;4936477;29;20040;-78
2021/03/19 10:52:42;;;;;;;15.50;11.57;;;3.80;99.90;;;;;;4936738;29;20054;-78
2021/03/19 10:55:20;;;;;;;16.90;11.40;;;3.90;99.90;;;;;;4935953;29;20410;-78
2021/03/19 10:57:56;;;;;;;20.95;11.90;;;4.10;99.90;;;;;;4951704;29;20524;-78
2021/03/19 11:00:40;;;;;;;16.58;10.90;;;4.00;99.90;;;;;;4936873;29;20046;-78
2021/03/19 11:03:07;;;;;;;18.27;11.43;;;4.00;99.90;;;;;;4951401;29;20498;-78
2021/03/19 11:05:59;;;;;;;14.13;10.07;;;4.10;99.90;;;;;;4951460;29;20039;-78
2021/03/19 11:08:31;;;;;;;12.85;9.70;;;4.00;99.90;;;;;;4936256;29;20066;-78
2021/03/19 11:11:03;;;;;;;15.98;10.88;;;3.90;99.90;;;;;;4951771;29;20138;-78
2021/03/19 11:13:37;;;;;;;13.43;9.45;;;3.90;99.90;;;;;;4936106;29;20058;-78
2021/03/19 11:16:32;;;;;;;15.15;10.05;;;3.70;99.90;;;;;;4951666;29;20151;-78
2021/03/19 11:19:13;;;;;;;13.68;10.00;;;3.40;99.90;;;;;;4936330;29;20345;-78
2021/03/19 11:21:52;;;;;;;13.85;9.35;;;3.30;99.90;;;;;;4935956;29;20593;-78
2021/03/19 11:24:30;;;;;;;18.45;12.25;;;3.10;99.90;;;;;;4936188;29;20043;-78
2021/03/19 11:27:24;;;;;;;18.85;11.00;;;3.00;99.90;;;;;;4935934;29;20426;-78
2021/03/19 11:30:09;;;;;;;18.90;11.93;;;2.90;99.90;;;;;;4951028;29;20550;-78
2021/03/19 11:32:40;;;;;;;23.17;14.18;;;2.80;99.90;;;;;;4935933;29;20061;-79
2021/03/19 11:35:16;;;;;;;25.15;14.55;;;2.70;99.90;;;;;;4951127;29;20158;-78
2021/03/19 11:37:48;;;;;;;83.60;39.75;;;2.60;99.90;;;;;;4951099;29;20036;-78
2021/03/19 11:40:25;;;;;;;32.53;17.58;;;2.50;99.90;;;;;;4950989;29;20045;-78
2021/03/19 11:43:00;;;;;;;21.48;13.15;;;2.40;99.90;;;;;;4951072;29;20047;-79
2021/03/19 11:45:38;;;;;;;20.60;12.20;;;2.30;99.90;;;;;;4950935;29;20150;-77
2021/03/19 11:48:06;;;;;;;17.30;11.98;;;2.30;99.90;;;;;;4935718;29;20043;-79
2021/03/19 11:51:09;;;;;;;25.88;17.60;;;2.30;99.90;;;;;;4951282;29;20116;-79
2021/03/19 11:53:42;;;;;;;22.55;14.20;;;2.30;99.90;;;;;;4951079;29;20113;-79
2021/03/19 11:56:14;;;;;;;25.48;17.10;;;2.30;99.90;;;;;;4952044;28;20470;-79
2021/03/19 11:58:45;;;;;;;24.67;16.23;;;2.20;99.90;;;;;;4950924;29;20138;-79
2021/03/19 12:01:17;;;;;;;21.45;13.80;;;2.20;99.90;;;;;;4951104;28;20138;-79
2021/03/19 12:03:51;;;;;;;17.30;11.25;;;2.20;99.90;;;;;;4952404;28;20267;-79
2021/03/19 12:06:22;;;;;;;13.85;9.30;;;2.20;99.90;;;;;;4935242;29;20526;-79
2021/03/19 12:08:49;;;;;;;13.27;9.23;;;2.30;99.90;;;;;;4950876;29;20137;-78
2021/03/19 12:11:23;;;;;;;15.15;10.45;;;2.20;99.90;;;;;;4951144;28;20142;-78
2021/03/19 12:13:56;;;;;;;14.13;9.77;;;2.10;99.90;;;;;;4951119;29;20047;-78
2021/03/19 12:16:27;;;;;;;16.80;11.13;;;2.10;99.90;;;;;;4966638;28;20113;-79
2021/03/19 12:18:58;;;;;;;15.63;9.88;;;2.20;99.90;;;;;;4950712;29;20146;-79
2021/03/19 12:21:30;;;;;;;18.48;10.27;;;2.30;99.90;;;;;;4950454;28;20043;-78
2021/03/19 12:24:01;;;;;;;14.18;9.10;;;2.50;99.90;;;;;;4950969;28;20130;-78
2021/03/19 12:26:32;;;;;;;12.52;9.00;;;2.80;99.90;;;;;;4935525;29;20047;-78
2021/03/19 12:28:59;;;;;;;13.50;8.88;;;3.00;99.90;;;;;;4950700;29;20590;-78
2021/03/19 12:31:30;;;;;;;12.70;9.20;;;3.00;99.90;;;;;;4950599;29;20079;-78
2021/03/19 12:34:01;;;;;;;14.98;10.48;;;3.00;99.90;;;;;;4950749;29;20142;-78
2021/03/19 12:36:33;;;;;;;13.30;9.73;;;2.90;99.90;;;;;;4950977;29;20044;-77
2021/03/19 12:39:05;;;;;;;17.02;10.70;;;2.90;99.90;;;;;;4950199;29;20066;-77
2021/03/19 12:41:32;;;;;;;17.23;11.93;;;3.10;99.90;;;;;;4935116;29;20059;-78
2021/03/19 12:43:59;;;;;;;16.00;11.00;;;3.20;99.90;;;;;;4950821;29;20075;-78
2021/03/19 12:46:31;;;;;;;16.95;11.05;;;3.30;99.90;;;;;;4950732;29;20134;-76
2021/03/19 12:49:03;;;;;;;14.48;9.88;;;3.40;99.90;;;;;;4935491;29;20371;-77
2021/03/19 12:51:35;;;;;;;11.05;8.52;;;3.70;99.90;;;;;;4950491;29;20078;-77
2021/03/19 12:54:03;;;;;;;13.85;9.60;;;3.90;99.90;;;;;;4950693;29;20075;-77
2021/03/19 12:56:34;;;;;;;12.30;8.43;;;4.00;99.90;;;;;;4950674;28;20400;-77
2021/03/19 12:59:05;;;;;;;11.95;8.65;;;4.30;99.90;;;;;;4950070;29;20070;-77
2021/03/19 13:01:37;;;;;;;12.02;8.98;;;4.30;99.90;;;;;;4950506;29;20499;-76
2021/03/19 13:04:08;;;;;;;9.38;7.75;;;4.40;99.90;;;;;;4950399;29;20082;-77
2021/03/19 13:06:39;;;;;;;10.20;7.55;;;4.40;99.90;;;;;;4950481;29;20067;-76
2021/03/19 13:09:14;;;;;;;8.50;6.63;;;4.50;99.90;;;;;;4950369;28;20123;-77
2021/03/19 13:11:40;;;;;;;7.05;5.72;;;4.80;99.90;;;;;;4950506;29;20413;-77
2021/03/19 13:14:07;;;;;;;9.35;6.88;;;4.60;99.90;;;;;;4950378;29;20147;-76
2021/03/19 13:16:34;;;;;;;9.35;6.68;;;4.50;99.90;;;;;;4950251;29;20511;-76
2021/03/19 13:19:06;;;;;;;9.07;6.40;;;4.40;99.90;;;;;;4935080;29;20150;-76
2021/03/19 13:21:38;;;;;;;8.32;6.22;;;4.50;99.90;;;;;;4950203;29;20134;-76
2021/03/19 13:24:09;;;;;;;9.65;6.75;;;4.60;99.90;;;;;;4950554;29;20200;-77
2021/03/19 13:26:36;;;;;;;13.73;9.05;;;4.70;99.90;;;;;;4950428;29;20074;-77
2021/03/19 13:29:02;;;;;;;12.05;7.97;;;4.70;99.90;;;;;;4962801;28;20085;-76